Time;durP1;ratioP1;P1;durP2;ratioP2;P2;SDS_P1;SDS_P2;PMS_P1;PMS_P2;Temp;Humidity;BMP_temperature;BMP_pressure;BME280_temperature;BME280_humidity;BME280_pressure;Samples;Min_cycle;Max_cycle;Signal;HPM_P1;HPM_P2
2023/06/17 00:00:13;;;;;;;;;;;;;;;14.37;87.85;98810.53;4290041;33;36148;-77
2023/06/17 00:02:41;;;;;;;;;;;;;;;14.44;87.83;98800.72;4290064;33;34909;-76
2023/06/17 00:05:09;;;;;;;;;;;;;;;13.62;93.91;98804.28;4290384;33;34301;-77
2023/06/17 00:07:36;;;;;;;;;;;;;;;13.40;96.17;98800.62;4290073;33;34824;-77
2023/06/17 00:10:05;;;;;;;;;;;;;;;13.96;93.41;98795.31;4288762;33;35034;-77
2023/06/17 00:12:33;;;;;;;;;;;;;;;14.00;93.18;98788.22;4289918;33;34914;-76
2023/06/17 00:15:04;;;;;;;;;;;;;;;13.99;92.10;98791.75;4276981;33;33631;-77
2023/06/17 00:17:33;;;;;;;;;;;;;;;14.45;89.58;98795.38;4290087;33;33957;-77
2023/06/17 00:20:08;;;;;;;;;;;;;;;13.99;91.92;98795.22;4276917;33;35075;-77
2023/06/17 00:22:36;;;;;;;;;;;;;;;13.50;95.28;98798.56;4277584;33;35582;-77
2023/06/17 00:25:04;;;;;;;;;;;;;;;13.87;92.74;98794.75;4289821;33;33509;-77
2023/06/17 00:27:32;;;;;;;;;;;;;;;14.11;90.83;98796.56;4289693;33;35068;-76
2023/06/17 00:30:00;;;;;;;;;;;;;;;13.59;95.00;98798.28;4276897;33;35433;-77
2023/06/17 00:32:31;;;;;;;;;;;;;;;14.18;89.90;98799.84;4289784;33;34737;-77
2023/06/17 00:34:58;;;;;;;;;;;;;;;13.68;91.66;98792.75;4276801;33;34360;-77
2023/06/17 00:37:27;;;;;;;;;;;;;;;13.83;90.86;98787.00;4289486;33;34251;-76
2023/06/17 00:39:54;;;;;;;;;;;;;;;13.36;94.27;98789.41;4276830;33;36154;-76
2023/06/17 00:42:22;;;;;;;;;;;;;;;13.46;94.88;98797.78;4276495;33;34038;-76
2023/06/17 00:44:50;;;;;;;;;;;;;;;13.75;91.93;98796.87;4276498;33;33847;-76
2023/06/17 00:47:18;;;;;;;;;;;;;;;13.64;90.66;98781.53;4276368;33;32942;-76
2023/06/17 00:49:46;;;;;;;;;;;;;;;14.20;86.95;98785.75;4276493;33;35474;-76
2023/06/17 00:52:14;;;;;;;;;;;;;;;13.82;88.61;98780.06;4276681;33;35475;-76
2023/06/17 00:55:02;;;;;;;;;;;;;;;13.89;88.50;98782.47;4278746;33;33664;-76
2023/06/17 00:57:31;;;;;;;;;;;;;;;13.49;91.56;98783.78;4276453;33;34034;-76
2023/06/17 00:59:59;;;;;;;;;;;;;;;13.79;91.87;98785.41;4276603;33;35301;-76
2023/06/17 01:02:28;;;;;;;;;;;;;;;13.93;90.58;98778.88;4289287;33;35465;-76
2023/06/17 01:04:57;;;;;;;;;;;;;;;14.06;89.17;98777.53;4291120;33;33508;-76
2023/06/17 01:07:57;;;;;;;;;;;;;;;13.52;90.82;98775.81;4291105;33;35041;-77
2023/06/17 01:10:35;;;;;;;;;;;;;;;14.06;88.56;98772.28;4282221;33;36196;-76
2023/06/17 01:13:03;;;;;;;;;;;;;;;13.91;90.00;98762.38;4278275;33;35077;-76
2023/06/17 01:15:34;;;;;;;;;;;;;;;13.49;91.27;98771.56;4278279;33;33638;-76
2023/06/17 01:18:04;;;;;;;;;;;;;;;13.45;92.16;98765.56;4278227;33;34359;-76
2023/06/17 01:20:32;;;;;;;;;;;;;;;13.35;92.75;98774.59;4278363;33;35338;-76
2023/06/17 01:23:00;;;;;;;;;;;;;;;13.68;91.53;98766.59;4278084;33;34804;-76
2023/06/17 01:25:31;;;;;;;;;;;;;;;13.48;92.39;98775.06;4278163;33;33749;-76
2023/06/17 01:28:03;;;;;;;;;;;;;;;13.61;91.73;98765.09;4278735;33;34307;-76
2023/06/17 01:30:31;;;;;;;;;;;;;;;13.63;92.04;98771.12;4291057;33;36105;-76
2023/06/17 01:33:00;;;;;;;;;;;;;;;13.77;91.61;98763.66;4291083;33;35453;-76
2023/06/17 01:35:29;;;;;;;;;;;;;;;14.12;90.25;98774.72;4291088;33;33779;-76
2023/06/17 01:38:23;;;;;;;;;;;;;;;14.47;89.07;98771.75;4277684;33;33379;-76
2023/06/17 01:40:54;;;;;;;;;;;;;;;14.60;87.92;98771.28;4284544;33;35219;-76
2023/06/17 01:43:22;;;;;;;;;;;;;;;14.86;86.39;98769.50;4277979;33;34900;-76
2023/06/17 01:45:50;;;;;;;;;;;;;;;14.80;85.81;98769.72;4289833;33;33857;-75
2023/06/17 01:48:18;;;;;;;;;;;;;;;15.05;84.85;98766.16;4277947;33;35102;-76
2023/06/17 01:50:46;;;;;;;;;;;;;;;14.82;85.47;98767.03;4277966;33;35362;-76
2023/06/17 01:53:13;;;;;;;;;;;;;;;14.88;85.08;98767.66;4277836;33;33840;-76
2023/06/17 01:55:41;;;;;;;;;;;;;;;15.03;83.66;98770.62;4290861;33;33402;-76
2023/06/17 01:58:10;;;;;;;;;;;;;;;14.93;83.74;98775.34;4290873;33;34011;-77
2023/06/17 02:00:37;;;;;;;;;;;;;;;15.04;83.38;98770.56;4290953;33;36155;-76
2023/06/17 02:03:06;;;;;;;;;;;;;;;14.92;83.72;98769.25;4290751;33;35455;-76
2023/06/17 02:05:33;;;;;;;;;;;;;;;14.94;83.68;98777.91;4290984;33;33425;-76
2023/06/17 02:08:04;;;;;;;;;;;;;;;14.80;84.52;98774.94;4290998;33;34305;-76
2023/06/17 02:10:32;;;;;;;;;;;;;;;15.00;83.13;98774.22;4278220;33;35416;-76
2023/06/17 02:13:03;;;;;;;;;;;;;;;14.83;83.60;98776.63;4290922;33;34739;-76
2023/06/17 02:15:31;;;;;;;;;;;;;;;15.04;82.38;98773.19;4277515;33;34431;-76
2023/06/17 02:18:00;;;;;;;;;;;;;;;15.17;81.23;98776.19;4289239;33;32629;-76
2023/06/17 02:20:28;;;;;;;;;;;;;;;14.78;83.56;98776.78;4278148;33;35428;-76
2023/06/17 02:22:56;;;;;;;;;;;;;;;15.15;81.97;98778.84;4277679;33;34904;-76
2023/06/17 02:25:24;;;;;;;;;;;;;;;14.97;82.13;98782.19;4277817;33;33504;-76
2023/06/17 02:27:52;;;;;;;;;;;;;;;15.02;81.68;98780.25;4290790;33;35041;-76
2023/06/17 02:30:21;;;;;;;;;;;;;;;15.14;80.76;98782.41;4277832;33;35359;-77
2023/06/17 02:32:49;;;;;;;;;;;;;;;15.15;80.40;98788.50;4290894;33;35624;-76
2023/06/17 02:35:19;;;;;;;;;;;;;;;14.90;81.74;98780.72;4290762;33;34240;-76
2023/06/17 02:37:47;;;;;;;;;;;;;;;14.87;82.47;98775.59;4277585;33;34296;-75
2023/06/17 02:40:15;;;;;;;;;;;;;;;14.94;81.90;98777.06;4290568;33;35241;-76
2023/06/17 02:42:43;;;;;;;;;;;;;;;15.12;80.87;98780.75;4277354;33;34248;-75
2023/06/17 02:45:13;;;;;;;;;;;;;;;15.05;81.06;98785.38;4290465;33;34407;-76
2023/06/17 02:47:42;;;;;;;;;;;;;;;15.40;79.23;98785.78;4277872;33;34274;-76
2023/06/17 02:50:10;;;;;;;;;;;;;;;15.03;80.13;98783.72;4277773;33;35315;-76
2023/06/17 02:52:38;;;;;;;;;;;;;;;15.26;79.41;98782.84;4290677;33;34677;-77
2023/06/17 02:55:07;;;;;;;;;;;;;;;15.19;79.88;98781.37;4277847;33;33422;-76
2023/06/17 02:57:35;;;;;;;;;;;;;;;15.05;80.64;98788.00;4277894;33;35098;-76
2023/06/17 03:00:08;;;;;;;;;;;;;;;15.15;80.44;98785.88;4277822;33;35228;-76
2023/06/17 03:02:36;;;;;;;;;;;;;;;15.09;80.58;98781.72;4278276;33;34706;-76
2023/06/17 03:05:06;;;;;;;;;;;;;;;15.14;80.50;98778.91;4290431;33;33819;-76
2023/06/17 03:07:36;;;;;;;;;;;;;;;15.15;80.30;98775.41;4290229;33;34304;-77
2023/06/17 03:10:04;;;;;;;;;;;;;;;14.98;81.13;98784.75;4277735;33;34861;-76
2023/06/17 03:12:33;;;;;;;;;;;;;;;14.93;81.18;98780.59;4277854;33;35472;-75
2023/06/17 03:15:02;;;;;;;;;;;;;;;14.81;82.05;98792.41;4290313;33;33691;-75
2023/06/17 03:17:31;;;;;;;;;;;;;;;15.10;81.10;98787.81;4277629;33;34916;-76
2023/06/17 03:20:01;;;;;;;;;;;;;;;15.17;80.20;98784.06;4277854;33;35215;-76
2023/06/17 03:22:30;;;;;;;;;;;;;;;15.04;81.18;98790.69;4277750;33;34523;-76
2023/06/17 03:24:58;;;;;;;;;;;;;;;14.94;81.35;98793.62;4290494;33;33544;-76
2023/06/17 03:27:27;;;;;;;;;;;;;;;15.14;80.63;98792.91;4276889;33;34066;-76
2023/06/17 03:29:55;;;;;;;;;;;;;;;15.06;80.86;98797.56;4290152;33;36241;-76
2023/06/17 03:32:23;;;;;;;;;;;;;;;14.97;81.20;98787.44;4290641;33;34850;-76
2023/06/17 03:34:52;;;;;;;;;;;;;;;15.26;79.61;98793.34;4277656;33;34253;-76
2023/06/17 03:37:21;;;;;;;;;;;;;;;15.45;78.61;98801.34;4290337;33;34288;-76
2023/06/17 03:39:49;;;;;;;;;;;;;;;15.13;80.11;98804.28;4277693;33;35308;-76
2023/06/17 03:42:16;;;;;;;;;;;;;;;15.49;77.84;98805.56;4290104;33;34748;-77
2023/06/17 03:44:44;;;;;;;;;;;;;;;15.46;77.42;98797.78;4277309;33;33598;-77
2023/06/17 03:47:12;;;;;;;;;;;;;;;15.51;77.77;98804.59;4290107;33;35111;-75
2023/06/17 03:49:40;;;;;;;;;;;;;;;15.21;79.30;98809.25;4289990;33;36147;-76
2023/06/17 03:52:09;;;;;;;;;;;;;;;15.26;80.12;98814.31;4290324;33;34750;-76
2023/06/17 03:54:39;;;;;;;;;;;;;;;15.45;79.58;98819.72;4277511;33;33792;-76
2023/06/17 03:57:06;;;;;;;;;;;;;;;15.68;78.27;98826.69;4290333;33;34203;-77
2023/06/17 03:59:36;;;;;;;;;;;;;;;15.16;80.67;98829.56;4289202;33;36233;-76
2023/06/17 04:02:05;;;;;;;;;;;;;;;15.63;78.82;98823.38;4289154;33;34710;-76
2023/06/17 04:04:34;;;;;;;;;;;;;;;15.48;79.59;98819.59;4289922;33;33764;-77
2023/06/17 04:07:02;;;;;;;;;;;;;;;15.59;78.66;98829.69;4277334;33;35123;-76
2023/06/17 04:09:32;;;;;;;;;;;;;;;15.51;78.49;98820.34;4276948;33;34636;-76
2023/06/17 04:12:01;;;;;;;;;;;;;;;15.58;79.15;98825.31;4290103;33;34818;-76
2023/06/17 04:14:29;;;;;;;;;;;;;;;15.85;78.31;98826.03;4277050;33;33971;-76
2023/06/17 04:16:56;;;;;;;;;;;;;;;15.79;78.59;98823.66;4290156;33;34961;-75
2023/06/17 04:19:25;;;;;;;;;;;;;;;15.94;77.10;98827.44;4290260;33;36035;-76
2023/06/17 04:21:52;;;;;;;;;;;;;;;16.11;76.60;98820.56;4289813;33;34850;-76
2023/06/17 04:24:20;;;;;;;;;;;;;;;16.01;76.17;98824.50;4289018;33;33731;-76
2023/06/17 04:26:52;;;;;;;;;;;;;;;16.36;75.21;98827.41;4289820;33;34207;-76
2023/06/17 04:29:21;;;;;;;;;;;;;;;16.36;75.87;98834.44;4289981;33;36264;-76
2023/06/17 04:31:49;;;;;;;;;;;;;;;16.34;76.73;98831.88;4290041;33;34704;-77
2023/06/17 04:34:21;;;;;;;;;;;;;;;16.58;74.04;98831.75;4290024;33;33696;-76
2023/06/17 04:36:56;;;;;;;;;;;;;;;16.75;75.02;98837.13;4289516;33;34350;-76
2023/06/17 04:39:26;;;;;;;;;;;;;;;16.82;72.94;98841.19;4289848;33;35242;-78
2023/06/17 04:41:54;;;;;;;;;;;;;;;16.46;75.07;98836.59;4288774;33;35553;-77
2023/06/17 04:44:22;;;;;;;;;;;;;;;16.94;73.35;98841.56;4289822;33;33753;-77
2023/06/17 04:46:50;;;;;;;;;;;;;;;17.02;72.39;98844.72;4289664;33;35038;-76
2023/06/17 04:49:19;;;;;;;;;;;;;;;16.76;74.20;98844.06;4289768;33;34202;-76
2023/06/17 04:51:48;;;;;;;;;;;;;;;17.23;71.40;98846.38;4276713;33;35023;-77
2023/06/17 04:54:18;;;;;;;;;;;;;;;17.05;74.04;98839.34;4289448;33;33574;-76
2023/06/17 04:56:48;;;;;;;;;;;;;;;17.50;72.74;98853.91;4276903;33;34973;-76
2023/06/17 04:59:18;;;;;;;;;;;;;;;17.08;73.25;98852.31;4289393;33;35378;-77
2023/06/17 05:01:46;;;;;;;;;;;;;;;17.38;72.37;98846.59;4289590;33;34745;-75
2023/06/17 05:04:14;;;;;;;;;;;;;;;16.93;74.06;98850.41;4289321;33;33607;-75
2023/06/17 05:06:44;;;;;;;;;;;;;;;16.59;75.00;98852.72;4289544;33;34256;-76
2023/06/17 05:09:12;;;;;;;;;;;;;;;17.04;73.50;98848.97;4289457;33;35253;-77
2023/06/17 05:11:42;;;;;;;;;;;;;;;16.99;73.60;98845.69;4289481;33;35571;-76
2023/06/17 05:14:09;;;;;;;;;;;;;;;16.95;73.03;98851.19;4289259;33;33468;-77
2023/06/17 05:16:38;;;;;;;;;;;;;;;17.40;73.41;98857.87;4276173;33;33493;-77
2023/06/17 05:19:05;;;;;;;;;;;;;;;17.16;74.74;98850.22;4289238;33;35226;-76
2023/06/17 05:21:33;;;;;;;;;;;;;;;18.04;71.01;98845.28;4276521;33;34821;-76
2023/06/17 05:24:02;;;;;;;;;;;;;;;17.88;71.54;98856.53;4289061;33;33714;-77
2023/06/17 05:26:30;;;;;;;;;;;;;;;17.83;71.49;98853.25;4289075;33;35094;-77
2023/06/17 05:28:58;;;;;;;;;;;;;;;17.46;72.52;98860.25;4289132;33;35391;-77
2023/06/17 05:31:27;;;;;;;;;;;;;;;17.43;72.59;98865.66;4276602;33;35177;-75
2023/06/17 05:33:54;;;;;;;;;;;;;;;17.89;71.63;98867.94;4275791;33;33405;-77
2023/06/17 05:36:22;;;;;;;;;;;;;;;17.97;71.57;98871.06;4288656;33;34286;-75
2023/06/17 05:38:53;;;;;;;;;;;;;;;18.36;69.95;98864.75;4288990;33;35406;-76
2023/06/17 05:41:21;;;;;;;;;;;;;;;18.76;67.78;98871.47;4288865;33;34754;-76
2023/06/17 05:43:49;;;;;;;;;;;;;;;18.97;68.90;98871.31;4289037;33;34578;-76
2023/06/17 05:46:18;;;;;;;;;;;;;;;18.95;67.48;98870.53;4276277;33;34202;-75
2023/06/17 05:48:46;;;;;;;;;;;;;;;18.74;67.95;98877.72;4287274;33;35162;-74
2023/06/17 05:51:15;;;;;;;;;;;;;;;19.13;66.78;98874.00;4290769;33;35586;-74
2023/06/17 05:53:43;;;;;;;;;;;;;;;19.26;66.52;98876.81;4277762;33;33790;-76
2023/06/17 05:56:13;;;;;;;;;;;;;;;19.11;65.95;98881.13;4290599;33;35075;-75
2023/06/17 05:58:46;;;;;;;;;;;;;;;19.29;64.68;98879.31;4290706;33;36210;-74
2023/06/17 06:01:18;;;;;;;;;;;;;;;19.51;64.88;98882.44;4291005;33;34792;-77
2023/06/17 06:03:46;;;;;;;;;;;;;;;19.52;64.14;98889.44;4277776;33;34176;-75
2023/06/17 06:06:13;;;;;;;;;;;;;;;19.29;65.14;98890.69;4290874;33;34836;-77
2023/06/17 06:08:41;;;;;;;;;;;;;;;19.62;65.43;98887.13;4290543;33;35366;-78
2023/06/17 06:11:10;;;;;;;;;;;;;;;19.98;63.75;98886.06;4290779;33;35359;-74
2023/06/17 06:13:38;;;;;;;;;;;;;;;20.34;62.85;98886.69;4287018;33;33390;-74
2023/06/17 06:16:06;;;;;;;;;;;;;;;20.59;62.23;98884.28;4277679;33;34141;-75
2023/06/17 06:18:34;;;;;;;;;;;;;;;20.66;61.63;98890.09;4290545;33;35311;-73
2023/06/17 06:21:02;;;;;;;;;;;;;;;20.50;65.00;98890.13;4277671;33;34515;-73
2023/06/17 06:23:29;;;;;;;;;;;;;;;20.86;61.65;98888.94;4289411;33;32758;-74
2023/06/17 06:25:58;;;;;;;;;;;;;;;21.03;62.05;98879.94;4290770;33;35141;-72
2023/06/17 06:28:26;;;;;;;;;;;;;;;21.01;61.19;98889.78;4290352;33;36275;-73
2023/06/17 06:30:53;;;;;;;;;;;;;;;20.74;62.48;98887.03;4290333;33;34781;-73
2023/06/17 06:33:22;;;;;;;;;;;;;;;20.76;63.49;98880.69;4295667;33;33666;-74
2023/06/17 06:35:50;;;;;;;;;;;;;;;20.81;61.88;98885.72;4305104;33;34363;-73
2023/06/17 06:38:18;;;;;;;;;;;;;;;21.28;61.51;98884.56;4304626;33;36177;-74
2023/06/17 06:40:46;;;;;;;;;;;;;;;21.27;61.31;98890.84;4292187;33;34782;-76
2023/06/17 06:43:14;;;;;;;;;;;;;;;21.61;59.98;98883.44;4304469;33;33484;-76
2023/06/17 06:45:45;;;;;;;;;;;;;;;21.33;60.45;98882.50;4296692;33;34358;-73
2023/06/17 06:48:14;;;;;;;;;;;;;;;21.83;59.27;98885.59;4290334;33;36313;-76
2023/06/17 06:50:46;;;;;;;;;;;;;;;22.15;58.30;98883.47;4277139;33;33684;-75
2023/06/17 06:53:15;;;;;;;;;;;;;;;21.92;57.45;98884.12;4290543;33;34295;-76
2023/06/17 06:55:44;;;;;;;;;;;;;;;22.34;55.61;98891.09;4290361;33;35031;-81
2023/06/17 06:58:12;;;;;;;;;;;;;;;22.49;55.46;98891.03;4277477;33;35267;-76
2023/06/17 07:00:41;;;;;;;;;;;;;;;22.39;55.67;98888.13;4289231;33;34644;-74
2023/06/17 07:03:10;;;;;;;;;;;;;;;22.67;55.54;98889.78;4290380;33;32788;-78
2023/06/17 07:05:38;;;;;;;;;;;;;;;22.85;56.84;98892.12;4290346;33;33632;-75
2023/06/17 07:08:07;;;;;;;;;;;;;;;23.04;56.79;98892.56;4290380;33;35335;-74
2023/06/17 07:10:39;;;;;;;;;;;;;;;23.65;53.40;98892.72;4290170;33;34768;-75
2023/06/17 07:13:09;;;;;;;;;;;;;;;23.58;54.86;98891.47;4290630;33;34473;-75
2023/06/17 07:15:37;;;;;;;;;;;;;;;23.56;52.23;98898.72;4277477;33;34047;-74
2023/06/17 07:18:05;;;;;;;;;;;;;;;23.90;53.20;98896.31;4290498;33;36239;-75
2023/06/17 07:20:34;;;;;;;;;;;;;;;24.12;51.94;98894.72;4290229;33;34615;-77
2023/06/17 07:23:02;;;;;;;;;;;;;;;23.46;54.96;98895.84;4290346;33;34464;-74
2023/06/17 07:25:30;;;;;;;;;;;;;;;24.22;51.53;98887.75;4288729;33;35047;-76
2023/06/17 07:28:01;;;;;;;;;;;;;;;24.35;50.68;98896.50;4290277;33;35270;-76
2023/06/17 07:30:29;;;;;;;;;;;;;;;23.76;49.91;98899.09;4290165;33;34941;-74
2023/06/17 07:32:58;;;;;;;;;;;;;;;23.70;50.24;98896.84;4290354;33;34221;-76
2023/06/17 07:35:26;;;;;;;;;;;;;;;24.01;49.54;98903.50;4290152;33;35094;-75
2023/06/17 07:37:54;;;;;;;;;;;;;;;24.03;50.74;98891.75;4289338;33;35041;-76
2023/06/17 07:40:21;;;;;;;;;;;;;;;24.15;51.75;98891.84;4289018;33;34335;-75
2023/06/17 07:42:50;;;;;;;;;;;;;;;23.87;51.05;98895.69;4277200;33;33808;-75
2023/06/17 07:45:18;;;;;;;;;;;;;;;24.03;51.19;98897.06;4289601;33;34492;-75
2023/06/17 07:47:45;;;;;;;;;;;;;;;24.16;51.15;98888.19;4290091;33;34890;-76
2023/06/17 07:50:13;;;;;;;;;;;;;;;23.93;51.68;98885.44;4289771;33;35514;-75
2023/06/17 07:52:41;;;;;;;;;;;;;;;24.41;51.31;98884.56;4290091;33;33628;-75
2023/06/17 07:55:10;;;;;;;;;;;;;;;24.34;50.66;98880.69;4290088;33;34287;-74
2023/06/17 07:57:38;;;;;;;;;;;;;;;24.69;48.50;98888.69;4289909;33;36395;-77
2023/06/17 08:00:09;;;;;;;;;;;;;;;24.75;49.71;98888.19;4290161;33;34814;-75
2023/06/17 08:02:39;;;;;;;;;;;;;;;24.49;50.55;98883.97;4289921;33;33736;-76
2023/06/17 08:05:08;;;;;;;;;;;;;;;24.38;48.86;98885.63;4289949;33;34229;-80
2023/06/17 08:07:35;;;;;;;;;;;;;;;23.73;49.03;98883.34;4276865;33;35454;-77
2023/06/17 08:10:04;;;;;;;;;;;;;;;23.67;51.66;98888.16;4276912;33;35611;-75
2023/06/17 08:12:36;;;;;;;;;;;;;;;23.36;53.17;98884.16;4289538;33;33697;-76
2023/06/17 08:15:05;;;;;;;;;;;;;;;23.44;51.06;98883.63;4276730;33;34242;-74
2023/06/17 08:17:32;;;;;;;;;;;;;;;23.14;52.33;98878.69;4276857;33;35201;-74
2023/06/17 08:20:01;;;;;;;;;;;;;;;22.91;53.55;98884.59;4289721;33;34667;-75
2023/06/17 08:22:29;;;;;;;;;;;;;;;23.20;53.95;98880.91;4276338;33;32410;-74
2023/06/17 08:24:59;;;;;;;;;;;;;;;23.36;54.40;98880.66;4288489;33;33619;-76
2023/06/17 08:27:27;;;;;;;;;;;;;;;23.39;53.62;98883.13;4289365;33;36081;-75
2023/06/17 08:29:58;;;;;;;;;;;;;;;23.48;54.78;98885.94;4289364;33;34979;-76
2023/06/17 08:32:27;;;;;;;;;;;;;;;23.75;51.12;98889.41;4276760;33;33539;-77
2023/06/17 08:34:56;;;;;;;;;;;;;;;24.00;51.05;98892.00;4289573;33;34094;-75
2023/06/17 08:37:24;;;;;;;;;;;;;;;23.76;53.72;98888.44;4289278;33;35152;-75
2023/06/17 08:39:52;;;;;;;;;;;;;;;23.73;52.86;98889.50;4276663;33;34732;-74
2023/06/17 08:42:20;;;;;;;;;;;;;;;24.07;51.79;98889.72;4276529;33;34425;-74
2023/06/17 08:44:48;;;;;;;;;;;;;;;24.75;48.87;98885.53;4289387;33;35110;-76
2023/06/17 08:47:16;;;;;;;;;;;;;;;24.68;49.85;98884.31;4276429;33;36166;-74
2023/06/17 08:49:44;;;;;;;;;;;;;;;24.75;48.37;98892.69;4289231;33;34273;-75
2023/06/17 08:52:13;;;;;;;;;;;;;;;24.64;47.55;98890.84;4276623;33;34417;-76
2023/06/17 08:54:41;;;;;;;;;;;;;;;24.09;49.34;98884.28;4276978;33;34316;-76
2023/06/17 08:57:14;;;;;;;;;;;;;;;24.23;50.34;98892.12;4276431;33;35267;-75
2023/06/17 08:59:42;;;;;;;;;;;;;;;24.19;52.15;98898.63;4276721;33;34769;-76
2023/06/17 09:02:14;;;;;;;;;;;;;;;25.02;49.75;98894.19;4289373;33;33729;-75
2023/06/17 09:04:42;;;;;;;;;;;;;;;24.83;52.94;98892.94;4251583;33;821947;-75
2023/06/17 09:07:11;;;;;;;;;;;;;;;25.45;48.08;98906.81;4288144;33;35389;-75
2023/06/17 09:09:39;;;;;;;;;;;;;;;25.08;47.56;98899.03;4285464;33;34820;-76
2023/06/17 09:12:08;;;;;;;;;;;;;;;25.94;46.06;98900.22;4289130;33;33592;-75
2023/06/17 09:14:36;;;;;;;;;;;;;;;26.07;45.31;98900.09;4288994;33;35030;-77
2023/06/17 09:17:04;;;;;;;;;;;;;;;26.04;46.07;98898.50;4289152;33;36123;-74
2023/06/17 09:19:32;;;;;;;;;;;;;;;26.41;46.25;98895.47;4276009;33;34238;-74
2023/06/17 09:22:06;;;;;;;;;;;;;;;26.98;44.22;98896.00;4288980;33;33608;-74
2023/06/17 09:24:35;;;;;;;;;;;;;;;26.84;43.00;98899.91;4289774;33;34354;-76
2023/06/17 09:27:02;;;;;;;;;;;;;;;26.55;45.21;98891.62;4277696;33;34663;-77
2023/06/17 09:29:30;;;;;;;;;;;;;;;26.28;45.37;98914.34;4289655;33;35268;-76
2023/06/17 09:32:01;;;;;;;;;;;;;;;26.12;45.28;98897.91;4277641;33;33723;-76
2023/06/17 09:34:28;;;;;;;;;;;;;;;26.70;44.23;98905.53;4276169;33;33497;-76
2023/06/17 09:37:03;;;;;;;;;;;;;;;26.57;42.47;98899.53;4290402;33;35646;-75
2023/06/17 09:39:32;;;;;;;;;;;;;;;26.02;44.50;98904.97;4278434;33;34916;-74
2023/06/17 09:42:08;;;;;;;;;;;;;;;26.89;45.31;98896.81;4277804;33;33632;-76
2023/06/17 09:44:39;;;;;;;;;;;;;;;26.51;44.11;98906.22;4290709;33;34873;-76
2023/06/17 09:47:07;;;;;;;;;;;;;;;26.38;44.49;98910.87;4277584;33;35489;-75
2023/06/17 09:49:36;;;;;;;;;;;;;;;26.85;43.52;98909.59;4277804;33;34687;-75
2023/06/17 09:52:09;;;;;;;;;;;;;;;26.93;42.58;98910.75;4290735;33;33710;-74
2023/06/17 09:54:37;;;;;;;;;;;;;;;26.48;43.85;98906.47;4290766;33;33690;-73
2023/06/17 09:57:09;;;;;;;;;;;;;;;26.69;42.89;98905.69;4290576;33;35236;-76
2023/06/17 09:59:37;;;;;;;;;;;;;;;26.43;43.01;98900.69;4277876;33;34585;-75
2023/06/17 10:02:05;;;;;;;;;;;;;;;26.70;41.41;98902.03;4293351;33;33245;-74
2023/06/17 10:04:35;;;;;;;;;;;;;;;26.23;43.87;98894.34;4290566;33;32812;-75
2023/06/17 10:07:05;;;;;;;;;;;;;;;25.73;42.72;98897.44;4277484;33;33714;-76
2023/06/17 10:09:33;;;;;;;;;;;;;;;25.96;42.89;98905.44;4290333;33;34870;-76
2023/06/17 10:12:02;;;;;;;;;;;;;;;25.34;42.64;98899.66;4290429;33;34254;-75
2023/06/17 10:14:33;;;;;;;;;;;;;;;25.04;44.59;98901.06;4277621;33;34350;-76
2023/06/17 10:17:01;;;;;;;;;;;;;;;25.39;44.09;98904.66;4277623;33;35176;-76
2023/06/17 10:19:31;;;;;;;;;;;;;;;25.12;45.56;98901.34;4290536;33;35423;-75
2023/06/17 10:21:59;;;;;;;;;;;;;;;25.06;45.32;98909.81;4277807;33;33684;-75
2023/06/17 10:24:27;;;;;;;;;;;;;;;24.76;47.16;98905.00;4277608;33;34918;-75
2023/06/17 10:26:55;;;;;;;;;;;;;;;24.81;48.00;98908.16;4290338;33;36203;-75
2023/06/17 10:29:23;;;;;;;;;;;;;;;24.71;47.39;98916.03;4277522;33;34479;-75
2023/06/17 10:31:51;;;;;;;;;;;;;;;24.99;46.88;98905.94;4277428;33;33567;-76
2023/06/17 10:34:22;;;;;;;;;;;;;;;25.14;47.05;98906.53;4290456;33;34236;-75
2023/06/17 10:36:51;;;;;;;;;;;;;;;25.25;46.69;98913.72;4277339;33;35723;-76
2023/06/17 10:39:19;;;;;;;;;;;;;;;25.79;45.17;98918.31;4290305;33;34854;-75
2023/06/17 10:41:48;;;;;;;;;;;;;;;25.63;46.24;98928.53;4277618;33;33281;-75
2023/06/17 10:44:34;;;;;;;;;;;;;;;25.42;46.04;98905.25;4290454;33;33953;-74
2023/06/17 10:47:05;;;;;;;;;;;;;;;25.55;46.07;98913.13;4290308;33;35032;-75
2023/06/17 10:49:38;;;;;;;;;;;;;;;26.07;46.25;98916.09;4277389;33;35104;-76
2023/06/17 10:52:11;;;;;;;;;;;;;;;26.20;44.48;98913.28;4277219;33;34491;-74
2023/06/17 10:54:51;;;;;;;;;;;;;;;26.73;43.39;98912.47;4277544;33;34977;-75
2023/06/17 10:57:32;;;;;;;;;;;;;;;26.45;44.48;98914.75;4290131;33;35396;-75
2023/06/17 11:00:06;;;;;;;;;;;;;;;26.00;44.12;98912.25;4289991;33;35546;-77
2023/06/17 11:02:37;;;;;;;;;;;;;;;25.87;43.95;98917.69;4276851;33;32957;-75
2023/06/17 11:05:07;;;;;;;;;;;;;;;26.63;42.31;98909.72;4290224;33;35033;-75
2023/06/17 11:07:35;;;;;;;;;;;;;;;26.58;42.03;98901.22;4276939;33;34460;-76
2023/06/17 11:10:03;;;;;;;;;;;;;;;26.20;42.24;98897.25;4290236;33;34761;-76
2023/06/17 11:12:31;;;;;;;;;;;;;;;25.98;44.08;98908.84;4277442;33;33405;-76
2023/06/17 11:14:59;;;;;;;;;;;;;;;26.88;42.32;98895.13;4286849;33;34255;-76
2023/06/17 11:17:28;;;;;;;;;;;;;;;26.39;41.33;98896.59;4290104;33;35161;-76
2023/06/17 11:19:55;;;;;;;;;;;;;;;26.08;43.53;98896.44;4278289;33;34669;-75
2023/06/17 11:22:23;;;;;;;;;;;;;;;26.19;42.85;98896.41;4277458;33;34347;-78
2023/06/17 11:24:51;;;;;;;;;;;;;;;26.38;42.33;98901.06;4290237;33;34160;-78
2023/06/17 11:27:19;;;;;;;;;;;;;;;26.38;43.12;98902.87;4277228;33;33703;-77
2023/06/17 11:29:47;;;;;;;;;;;;;;;27.02;42.54;98908.16;4277339;33;35626;-77
2023/06/17 11:32:15;;;;;;;;;;;;;;;27.69;39.47;98907.75;4274600;33;34406;-77
2023/06/17 11:34:42;;;;;;;;;;;;;;;27.18;41.95;98914.84;4275902;33;34105;-78
2023/06/17 11:37:10;;;;;;;;;;;;;;;26.68;42.07;98902.16;4275705;33;35410;-79
2023/06/17 11:39:39;;;;;;;;;;;;;;;26.78;41.61;98896.91;4274860;33;34044;-78
2023/06/17 11:42:06;;;;;;;;;;;;;;;26.32;42.14;98898.06;4275714;33;33746;-77
2023/06/17 11:44:35;;;;;;;;;;;;;;;26.79;43.59;98898.56;4274588;33;34464;-80
2023/06/17 11:47:03;;;;;;;;;;;;;;;26.25;41.94;98901.22;4275003;33;36147;-80
2023/06/17 11:49:31;;;;;;;;;;;;;;;26.09;43.46;98896.31;4278357;33;35609;-78
2023/06/17 11:52:01;;;;;;;;;;;;;;;26.31;44.44;98894.53;4282478;33;33624;-81
2023/06/17 11:54:29;;;;;;;;;;;;;;;26.59;41.05;98898.41;4277259;33;34223;-78
2023/06/17 11:56:56;;;;;;;;;;;;;;;26.07;41.55;98902.75;4289875;33;35023;-79
2023/06/17 11:59:25;;;;;;;;;;;;;;;27.22;41.78;98889.53;4288924;33;34652;-81
2023/06/17 12:01:53;;;;;;;;;;;;;;;27.31;39.37;98885.25;4290128;33;33534;-82
2023/06/17 12:04:22;;;;;;;;;;;;;;;26.98;41.43;98897.84;4289012;33;34999;-79
2023/06/17 12:06:50;;;;;;;;;;;;;;;27.42;39.93;98888.69;4277172;33;35292;-81
2023/06/17 12:09:19;;;;;;;;;;;;;;;26.58;40.21;98898.56;4289951;33;35327;-81
2023/06/17 12:11:47;;;;;;;;;;;;;;;26.06;40.18;98887.72;4289911;33;33769;-81
2023/06/17 12:14:15;;;;;;;;;;;;;;;25.87;41.09;98891.88;4290167;33;34995;-82
2023/06/17 12:16:44;;;;;;;;;;;;;;;25.87;40.39;98891.88;4275137;33;33743;-77
2023/06/17 12:19:22;;;;;;;;;;;;;;;26.10;39.54;98883.81;4288663;33;34878;-80
2023/06/17 12:21:50;;;;;;;;;;;;;;;25.79;40.66;98888.97;4276591;33;33043;-82
2023/06/17 12:24:19;;;;;;;;;;;;;;;25.87;41.44;98881.19;4276750;33;35376;-82
2023/06/17 12:26:47;;;;;;;;;;;;;;;26.63;39.20;98872.31;4289658;33;35247;-77
2023/06/17 12:29:14;;;;;;;;;;;;;;;26.38;42.40;98878.84;4289687;33;34737;-84
2023/06/17 12:31:53;;;;;;;;;;;;;;;26.54;41.44;98873.91;4277929;33;33608;-80
2023/06/17 12:34:20;;;;;;;;;;;;;;;26.44;41.31;98870.34;4289647;33;34293;-83
2023/06/17 12:36:48;;;;;;;;;;;;;;;27.07;40.08;98867.66;4289615;33;35399;-80
2023/06/17 12:39:16;;;;;;;;;;;;;;;27.34;40.18;98861.78;4276554;33;34620;-81
2023/06/17 12:41:44;;;;;;;;;;;;;;;27.71;42.55;98863.00;4303385;33;33730;-79
2023/06/17 12:44:12;;;;;;;;;;;;;;;27.90;38.93;98865.72;4300181;33;33809;-81
2023/06/17 12:46:41;;;;;;;;;;;;;;;27.73;40.57;98861.88;4289379;33;35423;-80
2023/06/17 12:49:09;;;;;;;;;;;;;;;27.98;37.77;98863.19;4289229;33;35710;-84
2023/06/17 12:51:36;;;;;;;;;;;;;;;27.50;37.55;98866.59;4289442;33;33825;-78
2023/06/17 12:54:04;;;;;;;;;;;;;;;26.77;39.26;98860.47;4289306;33;35150;-76
2023/06/17 12:56:32;;;;;;;;;;;;;;;26.98;40.26;98861.28;4289341;33;35396;-75